sensor_id;sensor_type;location;lat;lon;timestamp;pressure;altitude;pressure_sealevel;temperature;humidity
59435;BME280;45241;49.768;8.636;2023-05-19T00:00:20;100819.88;;;14.21;57.61
59435;BME280;45241;49.768;8.636;2023-05-19T00:02:45;100820.00;;;14.41;57.72
59435;BME280;45241;49.768;8.636;2023-05-19T00:05:11;100821.53;;;14.22;58.43
59435;BME280;45241;49.768;8.636;2023-05-19T00:07:40;100818.94;;;14.35;57.80
59435;BME280;45241;49.768;8.636;2023-05-19T00:10:07;100807.47;;;14.27;57.57
59435;BME280;45241;49.768;8.636;2023-05-19T00:12:32;100816.34;;;14.21;58.12
59435;BME280;45241;49.768;8.636;2023-05-19T00:14:58;100811.59;;;14.23;57.85
59435;BME280;45241;49.768;8.636;2023-05-19T00:17:24;100813.09;;;13.91;59.12
59435;BME280;45241;49.768;8.636;2023-05-19T00:19:50;100816.97;;;14.16;58.09
59435;BME280;45241;49.768;8.636;2023-05-19T00:22:16;100810.41;;;13.91;58.67
59435;BME280;45241;49.768;8.636;2023-05-19T00:24:41;100807.59;;;14.05;58.00
59435;BME280;45241;49.768;8.636;2023-05-19T00:27:07;100819.59;;;14.03;58.61
59435;BME280;45241;49.768;8.636;2023-05-19T00:29:32;100808.97;;;13.88;59.16
59435;BME280;45241;49.768;8.636;2023-05-19T00:31:57;100816.28;;;14.01;59.16
59435;BME280;45241;49.768;8.636;2023-05-19T00:34:23;100815.81;;;13.97;58.88
59435;BME280;45241;49.768;8.636;2023-05-19T00:36:48;100811.16;;;14.13;59.14
59435;BME280;45241;49.768;8.636;2023-05-19T00:39:13;100805.66;;;13.93;58.82
59435;BME280;45241;49.768;8.636;2023-05-19T00:41:39;100816.78;;;13.83;59.12
59435;BME280;45241;49.768;8.636;2023-05-19T00:44:05;100807.66;;;13.84;59.38
59435;BME280;45241;49.768;8.636;2023-05-19T00:46:31;100816.06;;;14.02;58.98
59435;BME280;45241;49.768;8.636;2023-05-19T00:48:56;100809.19;;;13.93;58.74
59435;BME280;45241;49.768;8.636;2023-05-19T00:51:25;100814.63;;;14.06;59.12
59435;BME280;45241;49.768;8.636;2023-05-19T00:53:51;100817.72;;;13.69;60.02
59435;BME280;45241;49.768;8.636;2023-05-19T00:56:17;100806.06;;;13.96;60.46
59435;BME280;45241;49.768;8.636;2023-05-19T00:58:43;100806.91;;;13.97;59.38
59435;BME280;45241;49.768;8.636;2023-05-19T01:01:09;100805.09;;;14.04;59.82
59435;BME280;45241;49.768;8.636;2023-05-19T01:03:38;100806.19;;;13.75;59.98
59435;BME280;45241;49.768;8.636;2023-05-19T01:06:05;100803.09;;;13.85;60.01
59435;BME280;45241;49.768;8.636;2023-05-19T01:08:36;100802.47;;;13.76;59.74
59435;BME280;45241;49.768;8.636;2023-05-19T01:11:02;100802.72;;;13.53;60.29
59435;BME280;45241;49.768;8.636;2023-05-19T01:13:27;100796.59;;;13.72;60.74
59435;BME280;45241;49.768;8.636;2023-05-19T01:16:10;100804.03;;;13.64;60.61
59435;BME280;45241;49.768;8.636;2023-05-19T01:27:20;100794.13;;;13.71;60.81
59435;BME280;45241;49.768;8.636;2023-05-19T01:30:16;100793.81;;;13.53;61.49
59435;BME280;45241;49.768;8.636;2023-05-19T01:32:48;100791.25;;;13.44;60.49
59435;BME280;45241;49.768;8.636;2023-05-19T01:35:16;100794.03;;;13.58;61.07
59435;BME280;45241;49.768;8.636;2023-05-19T01:37:42;100791.94;;;13.53;61.25
59435;BME280;45241;49.768;8.636;2023-05-19T01:40:09;100798.06;;;13.40;61.42
59435;BME280;45241;49.768;8.636;2023-05-19T01:42:36;100795.66;;;13.52;61.62
59435;BME280;45241;49.768;8.636;2023-05-19T01:45:05;100789.94;;;13.62;61.11
59435;BME280;45241;49.768;8.636;2023-05-19T01:47:33;100789.69;;;13.57;61.56
59435;BME280;45241;49.768;8.636;2023-05-19T01:49:59;100789.88;;;13.27;61.70
59435;BME280;45241;49.768;8.636;2023-05-19T01:52:24;100795.38;;;13.40;61.33
59435;BME280;45241;49.768;8.636;2023-05-19T01:54:50;100799.97;;;13.46;61.37
59435;BME280;45241;49.768;8.636;2023-05-19T01:57:23;100801.09;;;13.31;62.04
59435;BME280;45241;49.768;8.636;2023-05-19T02:00:14;100800.03;;;13.25;61.52
59435;BME280;45241;49.768;8.636;2023-05-19T02:03:04;100802.75;;;13.32;61.76
59435;BME280;45241;49.768;8.636;2023-05-19T02:08:10;100805.91;;;13.35;62.40
59435;BME280;45241;49.768;8.636;2023-05-19T02:10:40;100806.06;;;13.34;62.84
59435;BME280;45241;49.768;8.636;2023-05-19T02:13:09;100810.84;;;13.32;62.62
59435;BME280;45241;49.768;8.636;2023-05-19T02:15:39;100809.91;;;13.46;62.35
59435;BME280;45241;49.768;8.636;2023-05-19T02:18:10;100811.44;;;13.06;63.12
59435;BME280;45241;49.768;8.636;2023-05-19T02:20:39;100813.78;;;13.09;63.06
59435;BME280;45241;49.768;8.636;2023-05-19T02:23:04;100811.06;;;13.09;63.39
59435;BME280;45241;49.768;8.636;2023-05-19T02:25:30;100810.63;;;13.33;63.32
59435;BME280;45241;49.768;8.636;2023-05-19T02:27:56;100811.44;;;13.27;62.82
59435;BME280;45241;49.768;8.636;2023-05-19T02:30:22;100814.25;;;13.19;63.11
59435;BME280;45241;49.768;8.636;2023-05-19T02:32:47;100805.94;;;12.93;65.91
59435;BME280;45241;49.768;8.636;2023-05-19T02:35:13;100810.00;;;12.67;67.92
59435;BME280;45241;49.768;8.636;2023-05-19T02:37:38;100817.44;;;12.65;67.61
59435;BME280;45241;49.768;8.636;2023-05-19T02:40:04;100816.28;;;12.74;67.41
59435;BME280;45241;49.768;8.636;2023-05-19T02:42:30;100810.13;;;12.59;68.79
59435;BME280;45241;49.768;8.636;2023-05-19T02:44:55;100810.00;;;12.46;69.40
59435;BME280;45241;49.768;8.636;2023-05-19T02:47:20;100811.50;;;12.33;70.88
59435;BME280;45241;49.768;8.636;2023-05-19T02:49:46;100804.28;;;12.55;69.94
59435;BME280;45241;49.768;8.636;2023-05-19T02:52:11;100795.03;;;12.22;70.19
59435;BME280;45241;49.768;8.636;2023-05-19T02:54:36;100793.53;;;12.19;70.63
59435;BME280;45241;49.768;8.636;2023-05-19T02:57:02;100798.00;;;12.48;70.05
59435;BME280;45241;49.768;8.636;2023-05-19T02:59:27;100793.91;;;12.16;71.04
59435;BME280;45241;49.768;8.636;2023-05-19T03:01:59;100796.06;;;12.42;71.35
59435;BME280;45241;49.768;8.636;2023-05-19T03:04:24;100803.72;;;12.60;70.29
59435;BME280;45241;49.768;8.636;2023-05-19T03:06:50;100810.97;;;11.64;75.48
59435;BME280;45241;49.768;8.636;2023-05-19T03:09:15;100806.81;;;11.62;75.53
59435;BME280;45241;49.768;8.636;2023-05-19T03:11:41;100802.28;;;11.25;80.25
59435;BME280;45241;49.768;8.636;2023-05-19T03:14:06;100795.22;;;11.76;75.66
59435;BME280;45241;49.768;8.636;2023-05-19T03:16:36;100809.53;;;11.01;79.09
59435;BME280;45241;49.768;8.636;2023-05-19T03:19:01;100804.22;;;11.54;77.28
59435;BME280;45241;49.768;8.636;2023-05-19T03:21:26;100804.75;;;11.49;77.24
59435;BME280;45241;49.768;8.636;2023-05-19T03:23:52;100806.91;;;11.16;79.49
59435;BME280;45241;49.768;8.636;2023-05-19T03:26:18;100791.19;;;11.65;77.08
59435;BME280;45241;49.768;8.636;2023-05-19T03:28:44;100803.66;;;11.58;77.03
59435;BME280;45241;49.768;8.636;2023-05-19T03:31:09;100802.81;;;11.58;77.83
59435;BME280;45241;49.768;8.636;2023-05-19T03:33:34;100805.06;;;11.54;77.35
59435;BME280;45241;49.768;8.636;2023-05-19T03:36:00;100803.97;;;11.26;78.34
59435;BME280;45241;49.768;8.636;2023-05-19T03:38:25;100813.38;;;11.44;77.63
59435;BME280;45241;49.768;8.636;2023-05-19T03:40:50;100805.03;;;11.39;78.04
59435;BME280;45241;49.768;8.636;2023-05-19T03:43:16;100813.81;;;11.48;78.29
59435;BME280;45241;49.768;8.636;2023-05-19T03:45:41;100811.25;;;10.94;81.07
59435;BME280;45241;49.768;8.636;2023-05-19T03:48:06;100812.59;;;10.75;80.84
59435;BME280;45241;49.768;8.636;2023-05-19T03:50:32;100817.16;;;11.50;78.28
59435;BME280;45241;49.768;8.636;2023-05-19T03:52:58;100814.66;;;10.88;83.31
59435;BME280;45241;49.768;8.636;2023-05-19T03:55:23;100815.03;;;11.23;80.20
59435;BME280;45241;49.768;8.636;2023-05-19T03:57:50;100824.72;;;11.09;80.50
59435;BME280;45241;49.768;8.636;2023-05-19T04:00:17;100827.41;;;11.09;79.25
59435;BME280;45241;49.768;8.636;2023-05-19T04:02:42;100822.72;;;11.49;77.80
59435;BME280;45241;49.768;8.636;2023-05-19T04:05:08;100823.53;;;11.49;81.08
59435;BME280;45241;49.768;8.636;2023-05-19T04:07:33;100827.25;;;11.48;77.16
59435;BME280;45241;49.768;8.636;2023-05-19T04:09:59;100822.44;;;11.43;77.00
59435;BME280;45241;49.768;8.636;2023-05-19T04:12:24;100825.69;;;11.39;78.41
59435;BME280;45241;49.768;8.636;2023-05-19T04:14:49;100825.03;;;10.91;84.65
59435;BME280;45241;49.768;8.636;2023-05-19T04:17:15;100827.22;;;11.10;82.30
59435;BME280;45241;49.768;8.636;2023-05-19T04:19:40;100823.97;;;10.77;83.78
59435;BME280;45241;49.768;8.636;2023-05-19T04:22:05;100828.84;;;10.97;85.80
59435;BME280;45241;49.768;8.636;2023-05-19T04:24:31;100826.09;;;10.82;85.68
59435;BME280;45241;49.768;8.636;2023-05-19T04:26:57;100826.88;;;10.68;89.03
59435;BME280;45241;49.768;8.636;2023-05-19T04:29:27;100837.31;;;11.08;82.14
59435;BME280;45241;49.768;8.636;2023-05-19T04:31:54;100826.41;;;11.33;84.43
59435;BME280;45241;49.768;8.636;2023-05-19T04:34:20;100833.06;;;11.37;84.31
59435;BME280;45241;49.768;8.636;2023-05-19T04:36:45;100837.06;;;11.41;83.62
59435;BME280;45241;49.768;8.636;2023-05-19T04:39:12;100833.88;;;11.37;81.75
59435;BME280;45241;49.768;8.636;2023-05-19T04:41:38;100836.97;;;11.49;81.43
59435;BME280;45241;49.768;8.636;2023-05-19T04:44:05;100838.44;;;10.91;87.90
59435;BME280;45241;49.768;8.636;2023-05-19T04:46:33;100834.00;;;11.44;84.83
59435;BME280;45241;49.768;8.636;2023-05-19T04:48:58;100837.53;;;11.44;85.94
59435;BME280;45241;49.768;8.636;2023-05-19T04:51:25;100847.03;;;11.32;85.11
59435;BME280;45241;49.768;8.636;2023-05-19T04:53:55;100843.56;;;11.61;82.32
59435;BME280;45241;49.768;8.636;2023-05-19T04:56:20;100844.59;;;11.60;81.61
59435;BME280;45241;49.768;8.636;2023-05-19T04:58:46;100849.78;;;11.77;79.83
59435;BME280;45241;49.768;8.636;2023-05-19T05:01:12;100846.19;;;11.99;80.27
59435;BME280;45241;49.768;8.636;2023-05-19T05:03:38;100856.38;;;11.74;84.02
59435;BME280;45241;49.768;8.636;2023-05-19T05:06:03;100854.59;;;11.52;85.88
59435;BME280;45241;49.768;8.636;2023-05-19T05:08:28;100854.78;;;11.65;83.76
59435;BME280;45241;49.768;8.636;2023-05-19T05:10:54;100856.75;;;12.00;81.48
59435;BME280;45241;49.768;8.636;2023-05-19T05:13:22;100859.16;;;11.95;80.30
59435;BME280;45241;49.768;8.636;2023-05-19T05:15:47;100853.41;;;12.13;83.83
59435;BME280;45241;49.768;8.636;2023-05-19T05:18:14;100854.25;;;12.14;83.53
59435;BME280;45241;49.768;8.636;2023-05-19T05:20:43;100845.13;;;12.29;79.04
59435;BME280;45241;49.768;8.636;2023-05-19T05:23:10;100849.81;;;12.21;77.15
59435;BME280;45241;49.768;8.636;2023-05-19T05:25:42;100840.59;;;12.45;75.69
59435;BME280;45241;49.768;8.636;2023-05-19T05:28:08;100842.91;;;12.48;74.40
59435;BME280;45241;49.768;8.636;2023-05-19T05:30:33;100847.25;;;12.49;74.86
59435;BME280;45241;49.768;8.636;2023-05-19T05:33:00;100845.16;;;12.66;75.64
59435;BME280;45241;49.768;8.636;2023-05-19T05:35:26;100846.59;;;12.83;73.88
59435;BME280;45241;49.768;8.636;2023-05-19T05:37:51;100847.78;;;12.80;71.31
59435;BME280;45241;49.768;8.636;2023-05-19T05:40:17;100852.94;;;12.75;72.00
59435;BME280;45241;49.768;8.636;2023-05-19T05:42:42;100850.31;;;12.82;73.24
59435;BME280;45241;49.768;8.636;2023-05-19T05:45:07;100849.59;;;12.73;71.41
59435;BME280;45241;49.768;8.636;2023-05-19T05:47:33;100847.06;;;12.86;71.55
59435;BME280;45241;49.768;8.636;2023-05-19T05:50:02;100845.25;;;13.08;71.55
59435;BME280;45241;49.768;8.636;2023-05-19T05:52:29;100850.16;;;13.05;70.31
59435;BME280;45241;49.768;8.636;2023-05-19T05:54:55;100849.75;;;13.08;71.18
59435;BME280;45241;49.768;8.636;2023-05-19T05:57:20;100849.00;;;13.14;70.17
59435;BME280;45241;49.768;8.636;2023-05-19T05:59:46;100848.94;;;13.07;70.11
59435;BME280;45241;49.768;8.636;2023-05-19T06:02:12;100853.47;;;13.28;69.96
59435;BME280;45241;49.768;8.636;2023-05-19T06:04:37;100855.47;;;13.19;69.95
59435;BME280;45241;49.768;8.636;2023-05-19T06:07:03;100849.13;;;13.27;69.61
59435;BME280;45241;49.768;8.636;2023-05-19T06:09:28;100852.59;;;13.21;69.41
59435;BME280;45241;49.768;8.636;2023-05-19T06:11:56;100848.28;;;13.27;69.41
59435;BME280;45241;49.768;8.636;2023-05-19T06:14:22;100848.75;;;13.58;69.39
59435;BME280;45241;49.768;8.636;2023-05-19T06:16:47;100848.09;;;13.56;68.16
59435;BME280;45241;49.768;8.636;2023-05-19T06:19:13;100848.47;;;13.74;69.44
59435;BME280;45241;49.768;8.636;2023-05-19T06:21:38;100847.06;;;13.85;68.69
59435;BME280;45241;49.768;8.636;2023-05-19T06:24:03;100848.63;;;13.73;67.33
59435;BME280;45241;49.768;8.636;2023-05-19T06:26:29;100847.88;;;13.86;66.71
59435;BME280;45241;49.768;8.636;2023-05-19T06:28:54;100852.63;;;13.77;67.06
59435;BME280;45241;49.768;8.636;2023-05-19T06:31:19;100846.44;;;13.83;67.42
59435;BME280;45241;49.768;8.636;2023-05-19T06:33:45;100843.81;;;13.62;68.12
59435;BME280;45241;49.768;8.636;2023-05-19T06:36:11;100849.53;;;13.80;68.31
59435;BME280;45241;49.768;8.636;2023-05-19T06:38:36;100851.53;;;13.71;68.19
59435;BME280;45241;49.768;8.636;2023-05-19T06:41:01;100855.13;;;13.85;67.85
59435;BME280;45241;49.768;8.636;2023-05-19T06:43:27;100862.75;;;14.09;67.84
59435;BME280;45241;49.768;8.636;2023-05-19T06:45:52;100852.44;;;14.13;66.10
59435;BME280;45241;49.768;8.636;2023-05-19T06:48:18;100848.84;;;13.99;66.16
59435;BME280;45241;49.768;8.636;2023-05-19T06:50:43;100851.97;;;14.09;65.50
59435;BME280;45241;49.768;8.636;2023-05-19T06:53:08;100847.19;;;14.40;65.41
59435;BME280;45241;49.768;8.636;2023-05-19T06:55:34;100849.47;;;14.43;63.89
59435;BME280;45241;49.768;8.636;2023-05-19T06:57:59;100853.88;;;14.57;64.55
59435;BME280;45241;49.768;8.636;2023-05-19T07:00:24;100850.41;;;14.70;64.78
59435;BME280;45241;49.768;8.636;2023-05-19T07:02:50;100853.47;;;14.60;63.65
59435;BME280;45241;49.768;8.636;2023-05-19T07:05:15;100844.84;;;14.91;65.56
59435;BME280;45241;49.768;8.636;2023-05-19T07:07:41;100842.53;;;14.88;63.92
59435;BME280;45241;49.768;8.636;2023-05-19T07:10:06;100838.22;;;14.93;64.43
59435;BME280;45241;49.768;8.636;2023-05-19T07:12:32;100842.19;;;15.04;63.77
59435;BME280;45241;49.768;8.636;2023-05-19T07:14:57;100832.81;;;15.26;64.47
59435;BME280;45241;49.768;8.636;2023-05-19T07:17:22;100838.88;;;15.22;63.10
59435;BME280;45241;49.768;8.636;2023-05-19T07:19:48;100830.53;;;15.50;63.21
59435;BME280;45241;49.768;8.636;2023-05-19T07:22:13;100831.19;;;15.59;63.65
59435;BME280;45241;49.768;8.636;2023-05-19T07:24:38;100828.06;;;15.75;62.65
59435;BME280;45241;49.768;8.636;2023-05-19T07:27:04;100830.94;;;15.80;62.73
59435;BME280;45241;49.768;8.636;2023-05-19T07:29:29;100824.94;;;15.84;61.58
59435;BME280;45241;49.768;8.636;2023-05-19T07:31:55;100817.22;;;15.95;62.35
59435;BME280;45241;49.768;8.636;2023-05-19T07:34:22;100820.13;;;15.87;63.19
59435;BME280;45241;49.768;8.636;2023-05-19T07:36:48;100812.16;;;16.05;62.29
59435;BME280;45241;49.768;8.636;2023-05-19T07:39:13;100813.25;;;15.97;61.95
59435;BME280;45241;49.768;8.636;2023-05-19T07:41:38;100808.00;;;16.09;63.48
59435;BME280;45241;49.768;8.636;2023-05-19T07:44:04;100799.81;;;16.29;62.20
59435;BME280;45241;49.768;8.636;2023-05-19T07:46:34;100806.13;;;16.03;60.90
59435;BME280;45241;49.768;8.636;2023-05-19T07:49:00;100802.88;;;16.39;61.75
59435;BME280;45241;49.768;8.636;2023-05-19T07:51:25;100808.34;;;16.70;61.95
59435;BME280;45241;49.768;8.636;2023-05-19T07:53:50;100798.31;;;16.78;61.49
59435;BME280;45241;49.768;8.636;2023-05-19T07:56:17;100792.22;;;16.89;60.85
59435;BME280;45241;49.768;8.636;2023-05-19T07:58:42;100802.38;;;16.93;60.67
59435;BME280;45241;49.768;8.636;2023-05-19T08:01:07;100797.47;;;17.09;59.94
59435;BME280;45241;49.768;8.636;2023-05-19T08:03:32;100787.34;;;16.72;58.06
59435;BME280;45241;49.768;8.636;2023-05-19T08:05:58;100786.47;;;16.72;59.09
59435;BME280;45241;49.768;8.636;2023-05-19T08:08:23;100789.75;;;17.12;58.44
59435;BME280;45241;49.768;8.636;2023-05-19T08:10:49;100794.44;;;17.23;58.03
59435;BME280;45241;49.768;8.636;2023-05-19T08:13:14;100786.25;;;17.05;56.34
59435;BME280;45241;49.768;8.636;2023-05-19T08:15:40;100785.78;;;17.15;56.98
59435;BME280;45241;49.768;8.636;2023-05-19T08:18:05;100788.16;;;16.98;56.44
59435;BME280;45241;49.768;8.636;2023-05-19T08:20:30;100787.06;;;17.12;59.38
59435;BME280;45241;49.768;8.636;2023-05-19T08:22:56;100785.53;;;17.41;58.71
59435;BME280;45241;49.768;8.636;2023-05-19T08:25:22;100792.63;;;17.42;57.54
59435;BME280;45241;49.768;8.636;2023-05-19T08:27:47;100788.59;;;17.70;57.40
59435;BME280;45241;49.768;8.636;2023-05-19T08:30:12;100787.94;;;17.49;56.47
59435;BME280;45241;49.768;8.636;2023-05-19T08:32:38;100785.47;;;17.48;56.00
59435;BME280;45241;49.768;8.636;2023-05-19T08:35:03;100780.13;;;17.41;55.47
59435;BME280;45241;49.768;8.636;2023-05-19T08:37:29;100784.97;;;17.57;56.92
59435;BME280;45241;49.768;8.636;2023-05-19T08:39:54;100775.53;;;17.85;58.12
59435;BME280;45241;49.768;8.636;2023-05-19T08:42:21;100776.66;;;17.96;56.14
59435;BME280;45241;49.768;8.636;2023-05-19T08:44:46;100777.28;;;17.73;57.04
59435;BME280;45241;49.768;8.636;2023-05-19T08:47:12;100768.69;;;17.57;55.16
59435;BME280;45241;49.768;8.636;2023-05-19T08:49:45;100766.25;;;17.93;57.00
59435;BME280;45241;49.768;8.636;2023-05-19T08:52:46;100761.13;;;18.03;56.95
59435;BME280;45241;49.768;8.636;2023-05-19T08:55:27;100758.78;;;17.88;56.83
59435;BME280;45241;49.768;8.636;2023-05-19T08:57:53;100764.81;;;18.08;56.98
59435;BME280;45241;49.768;8.636;2023-05-19T09:00:18;100755.50;;;18.34;54.18
59435;BME280;45241;49.768;8.636;2023-05-19T09:02:47;100753.66;;;18.16;55.37
59435;BME280;45241;49.768;8.636;2023-05-19T09:05:14;100748.16;;;18.65;55.27
59435;BME280;45241;49.768;8.636;2023-05-19T09:07:42;100750.13;;;18.46;55.98
59435;BME280;45241;49.768;8.636;2023-05-19T09:10:07;100746.16;;;18.60;55.50
59435;BME280;45241;49.768;8.636;2023-05-19T09:12:33;100743.66;;;18.89;54.15
59435;BME280;45241;49.768;8.636;2023-05-19T09:14:58;100743.94;;;19.22;55.20
59435;BME280;45241;49.768;8.636;2023-05-19T09:17:24;100739.69;;;19.26;53.53
59435;BME280;45241;49.768;8.636;2023-05-19T09:19:49;100737.97;;;18.78;52.35
59435;BME280;45241;49.768;8.636;2023-05-19T09:22:15;100743.88;;;18.45;52.04
59435;BME280;45241;49.768;8.636;2023-05-19T09:24:43;100745.59;;;18.70;53.30
59435;BME280;45241;49.768;8.636;2023-05-19T09:27:08;100744.47;;;18.89;53.17
59435;BME280;45241;49.768;8.636;2023-05-19T09:29:34;100737.63;;;18.87;53.68
59435;BME280;45241;49.768;8.636;2023-05-19T09:31:59;100741.28;;;18.92;53.85
59435;BME280;45241;49.768;8.636;2023-05-19T09:34:25;100737.88;;;18.85;55.05
59435;BME280;45241;49.768;8.636;2023-05-19T09:36:51;100719.47;;;18.57;53.99
59435;BME280;45241;49.768;8.636;2023-05-19T09:39:19;100730.91;;;18.89;54.04
59435;BME280;45241;49.768;8.636;2023-05-19T09:41:45;100734.56;;;18.53;54.02
59435;BME280;45241;49.768;8.636;2023-05-19T09:44:24;100737.72;;;18.80;53.99
59435;BME280;45241;49.768;8.636;2023-05-19T09:46:54;100738.97;;;18.96;53.02
59435;BME280;45241;49.768;8.636;2023-05-19T09:49:21;100725.59;;;18.94;52.92
59435;BME280;45241;49.768;8.636;2023-05-19T09:51:57;100731.38;;;18.86;53.09
59435;BME280;45241;49.768;8.636;2023-05-19T09:54:23;100724.44;;;19.14;53.67
59435;BME280;45241;49.768;8.636;2023-05-19T09:57:03;100728.69;;;19.33;52.64
59435;BME280;45241;49.768;8.636;2023-05-19T09:59:29;100725.00;;;19.51;52.74
59435;BME280;45241;49.768;8.636;2023-05-19T10:01:57;100715.44;;;19.60;52.80
59435;BME280;45241;49.768;8.636;2023-05-19T10:04:24;100708.00;;;19.44;52.47
59435;BME280;45241;49.768;8.636;2023-05-19T10:06:51;100703.28;;;19.27;51.20
59435;BME280;45241;49.768;8.636;2023-05-19T10:09:23;100708.13;;;19.49;53.23
59435;BME280;45241;49.768;8.636;2023-05-19T10:11:53;100708.63;;;19.22;52.30
59435;BME280;45241;49.768;8.636;2023-05-19T10:14:27;100704.00;;;19.11;53.06
59435;BME280;45241;49.768;8.636;2023-05-19T10:16:55;100710.13;;;19.06;52.80
59435;BME280;45241;49.768;8.636;2023-05-19T10:19:22;100700.09;;;19.19;52.41
59435;BME280;45241;49.768;8.636;2023-05-19T10:21:48;100696.91;;;19.10;51.20
59435;BME280;45241;49.768;8.636;2023-05-19T10:24:14;100698.66;;;19.28;51.21
59435;BME280;45241;49.768;8.636;2023-05-19T10:26:43;100685.25;;;19.73;52.99
59435;BME280;45241;49.768;8.636;2023-05-19T10:29:10;100691.53;;;20.14;52.94
59435;BME280;45241;49.768;8.636;2023-05-19T10:31:37;100685.22;;;20.25;51.04
59435;BME280;45241;49.768;8.636;2023-05-19T10:36:44;100688.94;;;20.81;50.79
59435;BME280;45241;49.768;8.636;2023-05-19T10:39:21;100679.84;;;20.75;49.72
59435;BME280;45241;49.768;8.636;2023-05-19T10:42:03;100669.19;;;21.07;48.62
59435;BME280;45241;49.768;8.636;2023-05-19T10:47:25;100672.16;;;20.89;47.60
59435;BME280;45241;49.768;8.636;2023-05-19T10:49:52;100664.00;;;21.28;47.63
59435;BME280;45241;49.768;8.636;2023-05-19T10:52:22;100684.03;;;21.00;48.74
59435;BME280;45241;49.768;8.636;2023-05-19T10:54:50;100664.72;;;21.01;47.22
59435;BME280;45241;49.768;8.636;2023-05-19T10:57:19;100666.50;;;21.29;47.40
59435;BME280;45241;49.768;8.636;2023-05-19T10:59:48;100671.56;;;21.21;46.23
59435;BME280;45241;49.768;8.636;2023-05-19T11:02:41;100670.53;;;21.27;46.07
59435;BME280;45241;49.768;8.636;2023-05-19T11:05:14;100654.59;;;21.35;46.04
59435;BME280;45241;49.768;8.636;2023-05-19T11:08:02;100648.75;;;21.49;45.68
59435;BME280;45241;49.768;8.636;2023-05-19T11:10:31;100656.81;;;21.55;44.54
59435;BME280;45241;49.768;8.636;2023-05-19T11:12:57;100652.13;;;21.78;45.65
59435;BME280;45241;49.768;8.636;2023-05-19T11:15:24;100647.19;;;21.75;45.02
59435;BME280;45241;49.768;8.636;2023-05-19T11:17:51;100641.47;;;21.98;44.72
59435;BME280;45241;49.768;8.636;2023-05-19T11:20:22;100657.81;;;21.71;43.92
59435;BME280;45241;49.768;8.636;2023-05-19T11:25:47;100654.84;;;22.48;44.09
59435;BME280;45241;49.768;8.636;2023-05-19T11:28:17;100654.31;;;22.51;44.82
59435;BME280;45241;49.768;8.636;2023-05-19T11:30:45;100657.72;;;23.06;43.68
59435;BME280;45241;49.768;8.636;2023-05-19T11:33:11;100647.69;;;22.79;42.83
59435;BME280;45241;49.768;8.636;2023-05-19T11:35:38;100649.41;;;22.26;43.79
59435;BME280;45241;49.768;8.636;2023-05-19T11:38:04;100658.16;;;22.28;41.74
59435;BME280;45241;49.768;8.636;2023-05-19T11:40:29;100659.66;;;22.14;42.61
59435;BME280;45241;49.768;8.636;2023-05-19T11:42:55;100650.50;;;21.77;43.28
59435;BME280;45241;49.768;8.636;2023-05-19T11:45:24;100640.78;;;22.13;43.09
59435;BME280;45241;49.768;8.636;2023-05-19T11:47:50;100643.03;;;22.75;43.38
59435;BME280;45241;49.768;8.636;2023-05-19T11:50:15;100645.41;;;22.07;44.07
59435;BME280;45241;49.768;8.636;2023-05-19T11:52:44;100648.56;;;21.99;43.68
59435;BME280;45241;49.768;8.636;2023-05-19T11:55:17;100636.50;;;21.68;42.96
59435;BME280;45241;49.768;8.636;2023-05-19T11:57:58;100631.81;;;21.90;43.87
59435;BME280;45241;49.768;8.636;2023-05-19T12:00:25;100643.03;;;22.43;44.23
59435;BME280;45241;49.768;8.636;2023-05-19T12:02:51;100632.81;;;22.33;43.24
59435;BME280;45241;49.768;8.636;2023-05-19T12:05:18;100640.75;;;21.81;44.76
59435;BME280;45241;49.768;8.636;2023-05-19T12:07:43;100632.63;;;22.40;44.55
59435;BME280;45241;49.768;8.636;2023-05-19T12:10:09;100630.09;;;23.02;44.03
59435;BME280;45241;49.768;8.636;2023-05-19T12:12:34;100628.06;;;23.25;44.64
59435;BME280;45241;49.768;8.636;2023-05-19T12:15:01;100631.91;;;23.29;43.89
59435;BME280;45241;49.768;8.636;2023-05-19T12:17:27;100637.66;;;23.27;44.79
59435;BME280;45241;49.768;8.636;2023-05-19T12:19:53;100632.00;;;23.02;43.56
59435;BME280;45241;49.768;8.636;2023-05-19T12:22:19;100639.72;;;22.41;44.58
59435;BME280;45241;49.768;8.636;2023-05-19T12:24:45;100650.44;;;22.79;45.36
59435;BME280;45241;49.768;8.636;2023-05-19T12:27:18;100633.81;;;22.49;44.11
59435;BME280;45241;49.768;8.636;2023-05-19T12:29:51;100626.88;;;21.87;43.96
59435;BME280;45241;49.768;8.636;2023-05-19T12:32:18;100624.84;;;22.31;46.51
59435;BME280;45241;49.768;8.636;2023-05-19T12:34:43;100623.81;;;22.33;46.91
59435;BME280;45241;49.768;8.636;2023-05-19T12:37:09;100630.59;;;22.03;45.55
59435;BME280;45241;49.768;8.636;2023-05-19T12:39:35;100631.88;;;22.22;47.35
59435;BME280;45241;49.768;8.636;2023-05-19T12:42:10;100627.53;;;21.73;46.34
59435;BME280;45241;49.768;8.636;2023-05-19T12:44:47;100622.81;;;21.90;46.72
59435;BME280;45241;49.768;8.636;2023-05-19T12:47:15;100625.78;;;21.88;47.62
59435;BME280;45241;49.768;8.636;2023-05-19T12:52:25;100611.72;;;22.28;46.61
59435;BME280;45241;49.768;8.636;2023-05-19T12:55:17;100606.97;;;22.78;48.71
59435;BME280;45241;49.768;8.636;2023-05-19T12:57:48;100603.75;;;22.22;45.14
59435;BME280;45241;49.768;8.636;2023-05-19T13:05:29;100600.03;;;22.33;45.96
59435;BME280;45241;49.768;8.636;2023-05-19T13:08:05;100601.84;;;22.22;47.24
59435;BME280;45241;49.768;8.636;2023-05-19T13:10:32;100613.75;;;22.11;47.73
59435;BME280;45241;49.768;8.636;2023-05-19T13:12:58;100607.00;;;21.92;47.05
59435;BME280;45241;49.768;8.636;2023-05-19T13:15:26;100610.31;;;21.50;47.48
59435;BME280;45241;49.768;8.636;2023-05-19T13:17:52;100603.84;;;21.34;47.12